Rockfall, Connecticut
Current Conditions -  °F | °C
As of 7:53 PM on Monday 26 Jan 2015 (Local Time) from KMMK Reporting Station
Light Snow Light Snow  
Wind Chill: 10°   Ceiling: 1200
Heat Index: 22°   Visibility: 0.75mi
Dew Point: 17°   Wind: 13mph
Humidity: 82%   Direction: 10°N
Pressure: 29.89"   Gusts: 26mph
Location:  41.53°N, 72.7°W
Report Text: KMMK 270053Z AUTO 01011G23KT 3/4SM -SN VV012 M06/M08 A2989 RMK AO2 SLP124 P0002 T10561083 TSNO
Loading
Personal Weather Stations






























Interactive Weather Map New forecast layout! Learn more

10-Day Weather Forecast

Advertisements
Track Severe Weather on mobile